Time;durP1;ratioP1;P1;durP2;ratioP2;P2;SDS_P1;SDS_P2;PMS_P1;PMS_P2;Temp;Humidity;BMP_temperature;BMP_pressure;BME280_temperature;BME280_humidity;BME280_pressure;Samples;Min_cycle;Max_cycle;Signal;HPM_P1;HPM_P2
2021/06/06 00:01:39;;;;;;;13.03;10.10;;;;;;;16.46;65.23;100736.67;125179;1092;115252;-80
2021/06/06 00:04:14;;;;;;;11.98;9.60;;;;;;;16.37;65.45;100739.77;125877;1093;103364;-81
2021/06/06 00:06:42;;;;;;;13.90;9.25;;;;;;;16.36;65.89;100751.45;124827;1093;116129;-79
2021/06/06 00:09:14;;;;;;;11.13;9.50;;;;;;;16.32;66.07;100737.27;124912;1092;103412;-80
2021/06/06 00:11:45;;;;;;;9.63;8.63;;;;;;;16.23;66.56;100742.20;127807;1092;101108;-78
2021/06/06 00:14:16;;;;;;;11.45;9.15;;;;;;;16.17;66.55;100744.22;125965;1093;116066;-79
2021/06/06 00:16:48;;;;;;;14.83;9.30;;;;;;;16.14;66.63;100743.47;124971;1092;102980;-83
2021/06/06 00:19:17;;;;;;;10.75;9.65;;;;;;;16.10;66.60;100741.86;127842;1092;114675;-80
2021/06/06 00:21:45;;;;;;;10.33;9.33;;;;;;;16.06;66.62;100746.52;124707;1093;102997;-82
2021/06/06 00:24:14;;;;;;;11.90;10.23;;;;;;;16.05;66.62;100745.63;124427;1092;103019;-80
2021/06/06 00:26:42;;;;;;;13.75;10.65;;;;;;;15.96;66.95;100745.16;125277;1093;115366;-79
2021/06/06 00:29:10;;;;;;;12.23;9.28;;;;;;;15.88;67.30;100740.11;124966;1093;102978;-80
2021/06/06 00:31:38;;;;;;;13.83;10.03;;;;;;;15.86;67.39;100729.44;124851;1091;115539;-81
2021/06/06 00:34:06;;;;;;;13.73;11.73;;;;;;;15.87;67.20;100731.19;124978;1093;103790;-82
2021/06/06 00:36:47;;;;;;;11.70;10.60;;;;;;;15.88;66.85;100740.11;126001;1093;114928;-80
2021/06/06 00:39:15;;;;;;;13.08;9.68;;;;;;;15.87;66.51;100736.56;125027;1092;102920;-82
2021/06/06 00:41:45;;;;;;;11.95;8.93;;;;;;;15.96;66.48;100732.59;124323;1092;103002;-83
2021/06/06 00:44:13;;;;;;;12.70;10.85;;;;;;;15.94;66.43;100737.17;124510;1093;114336;-78
2021/06/06 00:46:54;;;;;;;12.17;10.50;;;;;;;15.93;66.75;100735.42;124924;1093;102940;-81
2021/06/06 00:49:22;;;;;;;12.30;9.93;;;;;;;15.84;67.08;100730.44;124869;1092;116316;-80
2021/06/06 00:51:58;;;;;;;10.90;9.68;;;;;;;15.72;67.06;100727.30;124946;1093;103098;-79
2021/06/06 00:54:37;;;;;;;13.25;11.03;;;;;;;15.66;67.70;100729.37;124920;1092;102999;-83
2021/06/06 00:57:14;;;;;;;13.45;10.73;;;;;;;15.62;67.31;100734.02;127443;1093;114116;-80
2021/06/06 01:00:29;;;;;;;26.48;11.10;;;;;;;15.64;67.16;100739.31;127466;1093;101807;-83
2021/06/06 01:02:57;;;;;;;13.20;11.33;;;;;;;15.62;67.48;100739.38;124802;1092;115493;-80
2021/06/06 01:05:35;;;;;;;12.95;10.33;;;;;;;15.64;66.79;100734.80;124655;1093;102863;-82
2021/06/06 01:08:10;;;;;;;14.05;12.55;;;;;;;15.71;66.71;100736.31;124938;1092;116496;-81
2021/06/06 01:10:38;;;;;;;14.78;11.90;;;;;;;15.74;66.74;100731.73;125064;1093;102997;-81
2021/06/06 01:13:25;;;;;;;13.25;11.30;;;;;;;15.69;66.47;100734.63;125009;1093;116323;-82
2021/06/06 01:15:58;;;;;;;14.25;12.25;;;;;;;15.68;67.03;100720.31;124669;1092;102986;-86
2021/06/06 01:18:35;;;;;;;12.87;11.47;;;;;;;15.70;66.67;100730.98;124686;1092;103151;-79
2021/06/06 01:21:17;;;;;;;13.10;11.07;;;;;;;15.67;66.41;100718.59;124563;1092;114571;-81
2021/06/06 01:24:02;;;;;;;12.60;11.25;;;;;;;15.65;66.66;100730.33;124587;1097;103131;-82
2021/06/06 01:26:48;;;;;;;13.28;10.40;;;;;;;15.64;66.69;100729.44;125032;1093;115322;-81
2021/06/06 01:29:22;;;;;;;13.80;11.10;;;;;;;15.70;66.40;100726.50;125446;1092;103024;-81
2021/06/06 01:31:53;;;;;;;12.35;11.05;;;;;;;15.67;66.24;100720.38;124912;1092;116396;-81
2021/06/06 01:34:23;;;;;;;12.93;11.63;;;;;;;15.67;66.41;100734.70;124844;1092;103095;-81
2021/06/06 01:37:02;;;;;;;13.03;11.35;;;;;;;15.61;66.65;100731.36;125052;1092;115036;-83
2021/06/06 01:40:00;;;;;;;15.43;11.40;;;;;;;15.65;66.44;100741.93;127725;1093;101796;-82
2021/06/06 01:42:32;;;;;;;13.23;10.93;;;;;;;15.69;66.34;100745.38;124747;1092;103058;-81
2021/06/06 01:45:07;;;;;;;18.60;12.90;;;;;;;15.71;66.20;100738.11;125945;1092;116271;-80
2021/06/06 01:47:35;;;;;;;13.85;12.43;;;;;;;15.70;66.05;100734.56;125005;1093;103051;-81
2021/06/06 01:50:27;;;;;;;16.33;12.70;;;;;;;15.66;66.11;100740.11;124606;1093;114919;-84
2021/06/06 01:52:56;;;;;;;13.57;12.17;;;;;;;15.62;66.20;100746.55;124961;1092;103164;-80
2021/06/06 01:55:26;;;;;;;15.83;13.20;;;;;;;15.60;66.57;100743.93;124938;1093;115138;-79
2021/06/06 01:57:54;;;;;;;15.70;13.25;;;;;;;15.62;66.57;100741.17;127441;1093;103134;-79
2021/06/06 02:00:31;;;;;;;13.15;11.88;;;;;;;15.61;66.35;100745.69;124285;1093;103088;-79
2021/06/06 02:02:59;;;;;;;14.10;12.63;;;;;;;15.62;66.53;100741.17;124327;1093;114495;-79
2021/06/06 02:05:27;;;;;;;13.20;11.90;;;;;;;15.58;66.55;100742.25;124481;1093;103514;-80
2021/06/06 02:07:55;;;;;;;13.70;12.40;;;;;;;15.50;66.59;100742.55;124314;1092;114934;-82
2021/06/06 02:10:26;;;;;;;13.60;12.18;;;;;;;15.46;66.56;100744.52;124309;1092;103157;-79
2021/06/06 02:12:59;;;;;;;15.90;12.30;;;;;;;15.43;66.45;100741.08;124316;1093;114131;-86
2021/06/06 02:15:32;;;;;;;14.07;12.67;;;;;;;15.41;66.78;100746.52;124734;1092;103377;-80
2021/06/06 02:18:02;;;;;;;14.57;13.07;;;;;;;15.37;66.99;100743.07;125025;1092;103376;-80
2021/06/06 02:20:38;;;;;;;14.53;13.03;;;;;;;15.29;67.04;100739.83;125049;1093;115015;-83
2021/06/06 02:23:07;;;;;;;16.33;13.98;;;;;;;15.26;67.03;100739.07;125081;1092;102976;-81
2021/06/06 02:25:49;;;;;;;14.23;12.50;;;;;;;15.25;67.42;100743.58;124981;1092;114897;-80
2021/06/06 02:28:59;;;;;;;13.55;12.15;;;;;;;15.26;67.14;100737.28;125052;1093;103010;-81
2021/06/06 02:31:39;;;;;;;14.00;12.30;;;;;;;15.28;67.04;100745.27;124672;1096;116700;-81
2021/06/06 02:34:28;;;;;;;15.03;12.77;;;;;;;15.31;66.75;100743.30;127531;1095;101643;-82
2021/06/06 02:37:55;;;;;;;14.75;13.28;;;;;;;15.34;66.85;100737.84;127748;1092;115430;-80
2021/06/06 02:40:51;;;;;;;18.18;12.40;;;;;;;15.27;66.86;100735.46;127418;1093;102985;-83
2021/06/06 02:43:25;;;;;;;15.83;12.58;;;;;;;15.28;67.12;100739.90;124777;1092;115118;-80
2021/06/06 02:45:57;;;;;;;14.73;13.20;;;;;;;15.26;67.14;100745.33;125706;1092;103159;-81
2021/06/06 02:48:28;;;;;;;12.68;11.48;;;;;;;15.25;67.35;100748.05;127743;1093;101145;-79
2021/06/06 02:51:03;;;;;;;14.40;13.03;;;;;;;15.27;66.84;100746.19;127675;1093;114626;-78
2021/06/06 02:53:33;;;;;;;13.90;12.53;;;;;;;15.26;67.06;100741.75;125039;1092;103147;-80
2021/06/06 02:56:13;;;;;;;13.93;12.53;;;;;;;15.15;67.61;100743.05;124774;1093;114591;-80
2021/06/06 02:59:03;;;;;;;15.55;13.85;;;;;;;15.10;67.40;100737.02;124918;1092;102983;-81
2021/06/06 03:01:49;;;;;;;15.30;11.87;;;;;;;15.08;67.85;100746.92;124976;1096;116258;-80
2021/06/06 03:04:22;;;;;;;14.00;11.53;;;;;;;15.14;67.98;100735.07;127610;1095;100954;-79
2021/06/06 03:07:16;;;;;;;13.97;12.33;;;;;;;15.15;67.76;100740.37;124406;1096;115371;-81
2021/06/06 03:09:58;;;;;;;15.37;11.90;;;;;;;15.16;67.71;100743.95;124661;1095;103191;-86
2021/06/06 03:12:39;;;;;;;13.10;11.70;;;;;;;15.20;67.84;100746.42;123920;1096;103441;-80
2021/06/06 03:15:09;;;;;;;15.33;12.83;;;;;;;15.24;68.45;100746.33;123561;1096;114718;-80
2021/06/06 03:17:40;;;;;;;21.60;13.37;;;;;;;15.20;68.48;100737.52;127346;1096;103905;-80
2021/06/06 03:20:13;;;;;;;17.87;12.80;;;;;;;15.27;68.49;100746.19;127528;1095;115816;-85
2021/06/06 03:22:42;;;;;;;14.28;11.30;;;;;;;15.28;68.54;100739.90;127144;1096;103163;-80
2021/06/06 03:25:32;;;;;;;16.43;12.28;;;;;;;15.35;67.96;100741.38;124465;1095;115288;-80
2021/06/06 03:28:01;;;;;;;14.57;12.90;;;;;;;15.43;67.39;100743.76;125188;1094;102950;-80
2021/06/06 03:30:29;;;;;;;15.50;13.87;;;;;;;15.50;67.31;100747.92;124669;1096;103068;-83
2021/06/06 03:32:58;;;;;;;17.10;12.33;;;;;;;15.54;66.95;100742.38;124531;1094;114876;-80
2021/06/06 03:35:27;;;;;;;14.98;11.78;;;;;;;15.59;66.84;100742.17;124751;1096;103182;-81
2021/06/06 03:37:54;;;;;;;14.93;12.63;;;;;;;15.64;66.94;100742.00;124479;1096;114624;-81
2021/06/06 03:40:25;;;;;;;15.53;12.58;;;;;;;15.69;66.69;100740.86;124904;1093;102995;-83
2021/06/06 03:43:09;;;;;;;14.50;12.37;;;;;;;15.67;66.34;100742.75;124876;1093;115782;-82
2021/06/06 03:45:36;;;;;;;12.50;10.73;;;;;;;15.70;66.55;100742.61;125018;1093;102901;-80
2021/06/06 03:48:05;;;;;;;11.35;9.75;;;;;;;15.71;66.25;100740.79;125168;1093;103132;-82
2021/06/06 03:50:35;;;;;;;12.43;11.13;;;;;;;15.73;66.55;100741.61;124897;1092;114620;-78
2021/06/06 03:53:06;;;;;;;12.25;10.95;;;;;;;15.80;66.38;100739.54;125004;1093;103004;-81
2021/06/06 03:55:35;;;;;;;12.80;11.00;;;;;;;15.82;66.01;100737.67;124743;1093;116014;-82
2021/06/06 03:58:03;;;;;;;12.33;9.27;;;;;;;15.86;66.36;100737.50;124973;1092;103015;-84
2021/06/06 04:00:37;;;;;;;14.18;11.10;;;;;;;15.90;66.29;100743.63;125094;1093;102997;-80
2021/06/06 04:03:05;;;;;;;10.80;9.75;;;;;;;15.95;65.75;100746.09;125485;1093;114587;-81
2021/06/06 04:05:34;;;;;;;15.65;10.55;;;;;;;15.97;65.86;100745.09;127964;1093;100918;-80
2021/06/06 04:08:02;;;;;;;11.73;9.93;;;;;;;15.99;66.04;100740.50;127851;1092;115331;-81
2021/06/06 04:10:44;;;;;;;12.40;9.73;;;;;;;16.04;65.87;100732.27;124715;1093;103009;-81
2021/06/06 04:13:12;;;;;;;10.17;9.00;;;;;;;16.16;65.45;100739.77;124670;1093;116169;-79
2021/06/06 04:15:40;;;;;;;12.98;11.03;;;;;;;16.24;65.58;100743.95;125001;1092;102990;-81
2021/06/06 04:18:31;;;;;;;11.80;9.80;;;;;;;16.29;65.11;100736.56;125880;1093;103577;-83
2021/06/06 04:21:08;;;;;;;11.00;9.63;;;;;;;16.33;64.80;100743.55;125762;1092;114398;-82
2021/06/06 04:23:36;;;;;;;10.97;8.93;;;;;;;16.38;65.21;100737.01;125048;1093;102965;-81
2021/06/06 04:26:04;;;;;;;14.55;8.65;;;;;;;16.44;65.01;100741.23;125021;1093;115943;-84
2021/06/06 04:28:33;;;;;;;11.23;10.00;;;;;;;16.51;65.01;100734.65;124530;1092;103030;-86
2021/06/06 04:31:02;;;;;;;14.27;9.33;;;;;;;16.54;64.96;100738.98;124340;1093;114975;-79
2021/06/06 04:33:43;;;;;;;15.83;9.77;;;;;;;16.56;65.26;100745.17;125030;1092;103214;-82
2021/06/06 04:36:12;;;;;;;12.88;9.48;;;;;;;16.60;65.10;100743.23;125030;1093;102987;-80
2021/06/06 04:38:39;;;;;;;14.30;8.97;;;;;;;16.64;64.90;100736.77;124787;1093;114348;-81
2021/06/06 04:41:11;;;;;;;23.70;10.27;;;;;;;16.71;65.11;100741.79;124914;1092;103130;-81
2021/06/06 04:43:39;;;;;;;11.57;8.90;;;;;;;16.71;64.42;100738.20;124653;1093;115944;-82
2021/06/06 04:46:08;;;;;;;10.90;8.40;;;;;;;16.74;65.13;100739.88;124850;1093;103009;-81
2021/06/06 04:48:39;;;;;;;9.60;8.25;;;;;;;16.85;64.46;100753.72;124954;1092;103544;-80
2021/06/06 04:51:23;;;;;;;11.83;8.80;;;;;;;16.95;64.45;100746.11;124687;1093;114892;-80
2021/06/06 04:53:52;;;;;;;8.48;7.55;;;;;;;17.01;63.61;100751.21;124939;1093;102977;-81
2021/06/06 04:56:22;;;;;;;12.53;8.27;;;;;;;17.08;63.68;100749.95;126840;1092;114959;-81
2021/06/06 04:58:49;;;;;;;10.10;7.63;;;;;;;17.14;63.20;100746.98;124397;1092;103097;-81
2021/06/06 05:01:18;;;;;;;9.83;7.77;;;;;;;17.18;63.06;100745.00;124333;1093;116200;-80
2021/06/06 05:03:45;;;;;;;10.30;7.20;;;;;;;17.26;63.59;100752.70;124514;1092;102983;-80
2021/06/06 05:06:14;;;;;;;10.30;7.40;;;;;;;17.30;63.37;100746.22;124925;1093;103339;-82
2021/06/06 05:08:55;;;;;;;12.87;7.47;;;;;;;17.40;62.70;100750.22;124597;1092;114598;-79
2021/06/06 05:11:22;;;;;;;8.25;7.10;;;;;;;17.47;62.11;100748.09;124461;1092;103009;-80
2021/06/06 05:13:50;;;;;;;7.20;6.37;;;;;;;17.51;62.38;100744.30;124716;1093;114349;-80
2021/06/06 05:16:17;;;;;;;11.90;7.73;;;;;;;17.54;62.24;100738.78;124853;1091;102913;-79
2021/06/06 05:18:44;;;;;;;11.70;7.57;;;;;;;17.60;61.84;100751.05;124671;1092;103003;-80
2021/06/06 05:21:14;;;;;;;9.10;7.25;;;;;;;17.65;61.66;100747.17;124784;1093;115895;-80
2021/06/06 05:23:42;;;;;;;9.23;7.30;;;;;;;17.76;62.03;100752.02;125555;1092;103486;-81
2021/06/06 05:26:09;;;;;;;9.93;6.75;;;;;;;17.83;62.32;100745.38;124676;1092;114385;-82
2021/06/06 05:28:41;;;;;;;13.27;7.40;;;;;;;17.89;61.00;100760.36;124611;1093;103079;-82
2021/06/06 05:31:09;;;;;;;7.18;5.90;;;;;;;17.93;61.59;100753.89;124639;1092;116005;-80
2021/06/06 05:33:37;;;;;;;9.20;6.78;;;;;;;17.98;61.53;100751.83;124820;1092;103099;-80
2021/06/06 05:36:05;;;;;;;10.13;7.40;;;;;;;18.03;61.41;100757.86;124453;1093;103083;-83
2021/06/06 05:38:34;;;;;;;8.43;7.67;;;;;;;18.10;61.32;100747.63;124115;1093;114909;-80
2021/06/06 05:41:03;;;;;;;8.93;6.90;;;;;;;18.19;60.48;100757.93;124113;1093;103020;-81
2021/06/06 05:43:36;;;;;;;8.07;6.90;;;;;;;18.25;60.47;100745.05;124800;1093;114579;-79
2021/06/06 05:46:04;;;;;;;8.30;7.18;;;;;;;18.35;60.35;100749.02;124405;1093;103167;-81
2021/06/06 05:48:32;;;;;;;9.45;7.13;;;;;;;18.43;60.19;100744.08;124323;1092;102982;-80
2021/06/06 05:51:02;;;;;;;17.30;9.30;;;;;;;18.52;59.88;100742.72;124253;1093;114904;-82
2021/06/06 05:53:30;;;;;;;8.60;6.43;;;;;;;18.55;59.92;100742.54;125220;1091;103103;-81
2021/06/06 05:55:57;;;;;;;8.83;7.03;;;;;;;18.60;59.75;100742.31;124271;1093;114972;-80
2021/06/06 05:58:25;;;;;;;10.73;7.57;;;;;;;18.69;59.66;100749.91;124407;1093;103051;-80
2021/06/06 06:01:07;;;;;;;12.13;6.65;;;;;;;18.72;59.77;100744.33;124244;1093;116314;-79
2021/06/06 06:03:49;;;;;;;8.17;6.43;;;;;;;18.79;59.63;100747.55;124577;1093;103009;-80
2021/06/06 06:06:16;;;;;;;8.13;6.28;;;;;;;18.88;59.37;100756.03;124468;1092;103113;-81
2021/06/06 06:08:45;;;;;;;10.70;6.85;;;;;;;18.97;59.77;100751.97;124299;1092;114867;-81
2021/06/06 06:11:16;;;;;;;8.20;6.65;;;;;;;19.06;59.49;100761.39;124650;1092;103091;-80
2021/06/06 06:13:45;;;;;;;12.10;7.30;;;;;;;19.15;57.71;100762.69;124940;1092;115657;-80
2021/06/06 06:16:14;;;;;;;7.85;6.83;;;;;;;19.19;57.51;100756.15;127159;1092;102898;-81
2021/06/06 06:18:42;;;;;;;7.58;6.78;;;;;;;19.26;58.06;100760.27;125911;1093;102976;-80
2021/06/06 06:21:13;;;;;;;9.95;6.80;;;;;;;19.34;58.19;100759.80;124668;1093;114477;-80
2021/06/06 06:23:41;;;;;;;10.87;7.13;;;;;;;19.40;57.26;100759.45;125039;1093;103082;-80
2021/06/06 06:26:08;;;;;;;10.07;6.97;;;;;;;19.48;57.10;100767.13;124310;1093;115004;-79
2021/06/06 06:28:36;;;;;;;10.08;7.18;;;;;;;19.49;56.84;100761.63;124522;1092;103225;-83
2021/06/06 06:31:04;;;;;;;8.63;6.83;;;;;;;19.54;57.11;100770.34;124850;1092;114694;-83
2021/06/06 06:33:31;;;;;;;8.90;7.00;;;;;;;19.55;57.04;100763.98;124981;1093;103012;-80
2021/06/06 06:36:15;;;;;;;7.43;6.55;;;;;;;19.56;56.98;100756.73;124904;1093;103004;-80
2021/06/06 06:38:43;;;;;;;12.80;8.25;;;;;;;19.61;57.62;100762.75;124807;1093;115233;-82
2021/06/06 06:41:30;;;;;;;8.23;6.25;;;;;;;19.66;57.08;100763.35;125265;1093;103023;-83
2021/06/06 06:43:58;;;;;;;8.88;7.03;;;;;;;19.71;57.16;100771.17;124761;1093;114736;-80
2021/06/06 06:46:26;;;;;;;8.73;6.43;;;;;;;19.77;57.49;100770.83;125079;1093;102964;-79
2021/06/06 06:48:55;;;;;;;7.30;6.60;;;;;;;19.85;56.50;100775.81;124815;1093;103007;-79
2021/06/06 06:51:24;;;;;;;6.78;6.08;;;;;;;19.93;56.79;100781.63;124657;1091;114365;-82
2021/06/06 06:53:54;;;;;;;8.70;7.00;;;;;;;19.99;56.18;100780.38;124789;1092;103017;-79
2021/06/06 06:56:28;;;;;;;8.60;6.70;;;;;;;20.07;56.73;100782.64;124493;1093;116095;-82
2021/06/06 06:58:56;;;;;;;7.78;6.38;;;;;;;20.13;56.70;100777.73;126574;1093;103029;-81
2021/06/06 07:01:24;;;;;;;7.80;5.77;;;;;;;20.18;56.18;100780.17;124311;1092;114780;-79
2021/06/06 07:04:07;;;;;;;8.93;6.18;;;;;;;20.21;55.10;100777.27;124303;1092;104514;-81
2021/06/06 07:06:50;;;;;;;8.53;6.45;;;;;;;20.29;54.92;100783.08;126237;1096;103921;-79
2021/06/06 07:09:19;;;;;;;9.17;6.77;;;;;;;20.33;55.22;100779.22;125744;1093;115562;-79
2021/06/06 07:11:47;;;;;;;10.48;6.73;;;;;;;20.42;54.95;100780.50;127385;1093;102898;-82
2021/06/06 07:14:17;;;;;;;7.17;6.50;;;;;;;20.47;54.18;100781.09;124714;1093;114639;-79
2021/06/06 07:16:44;;;;;;;8.50;6.80;;;;;;;20.53;55.08;100774.42;124769;1093;103004;-78
2021/06/06 07:19:12;;;;;;;8.60;6.87;;;;;;;20.63;53.93;100780.12;124366;1093;116168;-79
2021/06/06 07:21:40;;;;;;;16.43;8.33;;;;;;;20.68;55.12;100765.33;124745;1093;103393;-80
2021/06/06 07:24:08;;;;;;;9.93;7.27;;;;;;;20.74;54.49;100769.53;124982;1093;102980;-79
2021/06/06 07:26:40;;;;;;;15.87;8.00;;;;;;;20.83;54.64;100770.77;124906;1092;114489;-80
2021/06/06 07:29:25;;;;;;;9.07;6.83;;;;;;;20.88;53.47;100766.80;125170;1093;102983;-81
2021/06/06 07:31:54;;;;;;;9.43;8.05;;;;;;;20.92;53.41;100770.19;124697;1092;115917;-81
2021/06/06 07:34:25;;;;;;;13.70;7.73;;;;;;;21.00;54.15;100764.28;125204;1093;103018;-80
2021/06/06 07:37:07;;;;;;;8.40;7.00;;;;;;;21.09;54.29;100762.84;124718;1092;116435;-81
2021/06/06 07:39:34;;;;;;;8.78;7.18;;;;;;;21.19;53.52;100770.26;124951;1092;103148;-81
2021/06/06 07:42:03;;;;;;;7.50;6.23;;;;;;;21.29;52.83;100772.38;125014;1092;102991;-85
2021/06/06 07:44:30;;;;;;;7.75;6.10;;;;;;;21.33;52.30;100771.20;124524;1093;114391;-79
2021/06/06 07:46:58;;;;;;;8.95;7.63;;;;;;;21.33;51.95;100773.91;124667;1092;103485;-82
2021/06/06 07:49:25;;;;;;;8.47;6.87;;;;;;;21.43;52.24;100774.16;124454;1093;114880;-80
2021/06/06 07:51:53;;;;;;;16.07;7.63;;;;;;;21.49;51.52;100771.91;124463;1092;103014;-85
2021/06/06 07:54:34;;;;;;;8.63;6.37;;;;;;;21.59;51.50;100772.19;124146;1096;103504;-80
2021/06/06 07:57:03;;;;;;;10.47;6.90;;;;;;;21.62;50.99;100771.12;127268;1095;114477;-80
2021/06/06 07:59:33;;;;;;;10.43;6.60;;;;;;;21.71;50.87;100774.09;127764;1093;101790;-79
2021/06/06 08:02:01;;;;;;;9.95;6.48;;;;;;;21.82;51.66;100776.08;124737;1092;114481;-79
2021/06/06 08:04:31;;;;;;;10.90;6.35;;;;;;;21.96;51.93;100768.84;124480;1093;102978;-82
2021/06/06 08:06:58;;;;;;;12.80;6.17;;;;;;;22.04;50.16;100772.75;124592;1093;103122;-81
2021/06/06 08:09:27;;;;;;;9.95;5.40;;;;;;;22.11;49.89;100765.09;124775;1092;114145;-83
2021/06/06 08:12:09;;;;;;;11.18;5.38;;;;;;;22.21;50.82;100768.88;124874;1091;103132;-86
2021/06/06 08:14:36;;;;;;;9.60;4.53;;;;;;;22.32;49.07;100773.55;124826;1093;114603;-83
2021/06/06 08:17:03;;;;;;;9.90;5.33;;;;;;;22.43;49.83;100770.16;124976;1092;102909;-81
2021/06/06 08:19:31;;;;;;;8.50;5.45;;;;;;;22.57;50.20;100768.30;124847;1093;114271;-82
2021/06/06 08:22:01;;;;;;;6.25;5.00;;;;;;;22.65;47.97;100771.34;124688;1093;103594;-81
2021/06/06 08:24:30;;;;;;;8.23;4.95;;;;;;;22.73;47.74;100760.79;124460;1093;103138;-79
2021/06/06 08:26:57;;;;;;;8.78;4.63;;;;;;;22.84;47.93;100751.87;124591;1092;116138;-80
2021/06/06 08:29:25;;;;;;;5.07;4.43;;;;;;;22.98;46.87;100757.17;124705;1093;102994;-81
2021/06/06 08:32:07;;;;;;;9.00;4.65;;;;;;;23.17;47.02;100759.42;124783;1093;116288;-86
2021/06/06 08:34:35;;;;;;;5.17;4.10;;;;;;;23.30;46.62;100763.94;126458;1093;103033;-80
2021/06/06 08:37:04;;;;;;;4.85;4.25;;;;;;;23.45;45.83;100753.80;124604;1093;113727;-81
2021/06/06 08:39:45;;;;;;;6.13;4.10;;;;;;;23.45;46.84;100757.38;126251;1093;103100;-81
2021/06/06 08:42:23;;;;;;;5.95;4.20;;;;;;;23.61;45.58;100753.52;125471;1093;103681;-81
2021/06/06 08:45:10;;;;;;;6.70;4.40;;;;;;;23.88;45.95;100748.69;124663;1093;114912;-83
2021/06/06 08:47:38;;;;;;;7.93;3.90;;;;;;;24.21;44.82;100754.37;125519;1092;103111;-87
2021/06/06 08:50:13;;;;;;;5.77;3.53;;;;;;;24.40;42.98;100751.05;125364;1092;114810;-80
2021/06/06 08:53:11;;;;;;;4.65;3.25;;;;;;;24.45;42.46;100750.70;125160;1093;103039;-81
2021/06/06 08:56:17;;;;;;;4.73;3.55;;;;;;;24.35;41.89;100754.16;125535;1096;114971;-87
2021/06/06 08:59:04;;;;;;;5.10;3.30;;;;;;;24.21;42.04;100748.92;124732;1095;103310;-80
2021/06/06 09:02:03;;;;;;;3.90;2.90;;;;;;;24.30;42.93;100748.20;124706;1092;115743;-80
2021/06/06 09:04:34;;;;;;;4.93;3.43;;;;;;;24.44;42.61;100751.69;124693;1093;103189;-83
2021/06/06 09:07:09;;;;;;;5.07;3.33;;;;;;;24.68;42.23;100751.61;124778;1092;116245;-78
2021/06/06 09:09:51;;;;;;;5.07;3.07;;;;;;;24.88;41.73;100744.55;124895;1092;103042;-78
2021/06/06 09:12:21;;;;;;;4.30;2.80;;;;;;;25.03;38.90;100748.76;124893;1093;103025;-80
2021/06/06 09:14:50;;;;;;;5.20;3.50;;;;;;;25.22;39.51;100744.52;127695;1092;114790;-79
2021/06/06 09:17:20;;;;;;;6.80;3.28;;;;;;;25.53;40.40;100736.53;125681;1093;103141;-80
2021/06/06 09:19:53;;;;;;;3.77;3.07;;;;;;;25.60;39.50;100740.45;127749;1093;114430;-81
2021/06/06 09:22:33;;;;;;;6.57;3.20;;;;;;;25.86;38.66;100737.39;127790;1093;101776;-80
2021/06/06 09:25:28;;;;;;;6.03;3.27;;;;;;;26.12;37.55;100743.34;127864;1093;101690;-81
2021/06/06 09:28:18;;;;;;;2.70;2.40;;;;;;;26.37;35.70;100739.33;127541;1092;103089;-80
2021/06/06 09:31:05;;;;;;;4.50;2.68;;;;;;;27.53;34.84;100728.97;124795;1093;103007;-79
2021/06/06 09:33:51;;;;;;;4.25;2.75;;;;;;;28.76;33.07;100721.02;124731;1092;114594;-80
2021/06/06 09:36:41;;;;;;;5.48;2.65;;;;;;;29.87;31.81;100732.91;127876;1093;101133;-80
2021/06/06 09:39:21;;;;;;;4.90;2.13;;;;;;;30.75;30.00;100731.97;127544;1093;116258;-79
2021/06/06 09:41:54;;;;;;;4.80;3.20;;;;;;;30.57;31.48;100723.82;127394;1093;100832;-79
2021/06/06 09:44:29;;;;;;;3.57;2.07;;;;;;;30.95;28.17;100719.70;127531;1093;114439;-81
2021/06/06 09:47:06;;;;;;;5.20;3.47;;;;;;;30.72;29.36;100726.81;127566;1093;100801;-79
2021/06/06 09:49:48;;;;;;;3.73;2.35;;;;;;;30.25;30.70;100720.66;127695;1092;115878;-79
2021/06/06 09:52:22;;;;;;;3.67;2.57;;;;;;;29.74;30.42;100722.28;127674;1092;100916;-78
2021/06/06 09:54:55;;;;;;;3.70;2.30;;;;;;;29.22;30.61;100721.08;127061;1093;101763;-79
2021/06/06 09:57:37;;;;;;;5.97;2.27;;;;;;;29.02;30.94;100723.07;124205;1093;114776;-79
2021/06/06 10:00:29;;;;;;;2.73;1.90;;;;;;;30.12;29.97;100721.08;124413;1093;103201;-79
2021/06/06 10:03:03;;;;;;;6.10;2.80;;;;;;;31.58;27.26;100714.72;127552;1093;115944;-78
2021/06/06 10:05:33;;;;;;;4.20;2.23;;;;;;;32.63;25.95;100711.21;127653;1093;101638;-79
2021/06/06 10:08:05;;;;;;;3.53;2.58;;;;;;;32.52;25.60;100708.82;125640;1093;115856;-78
2021/06/06 10:10:42;;;;;;;6.10;2.50;;;;;;;31.70;26.93;100714.40;124766;1093;102109;-81
2021/06/06 10:13:13;;;;;;;3.83;2.70;;;;;;;31.04;27.87;100706.00;127798;1093;101069;-82
2021/06/06 10:16:07;;;;;;;5.57;2.70;;;;;;;30.34;28.66;100716.95;124420;1096;114161;-82
2021/06/06 10:18:59;;;;;;;4.25;2.75;;;;;;;29.78;29.70;100713.59;124365;1096;103222;-79
2021/06/06 10:21:32;;;;;;;7.43;2.58;;;;;;;29.76;29.62;100712.02;124333;1096;115708;-81
2021/06/06 10:24:13;;;;;;;4.63;2.80;;;;;;;30.38;28.72;100711.12;124449;1096;103583;-82
2021/06/06 10:27:06;;;;;;;5.80;2.10;;;;;;;30.16;28.30;100703.28;124356;1096;115597;-82
2021/06/06 10:29:42;;;;;;;4.10;2.37;;;;;;;30.11;28.47;100711.14;124606;1096;103179;-80
2021/06/06 10:32:40;;;;;;;3.83;2.60;;;;;;;29.74;28.67;100705.81;124340;1095;116394;-79
2021/06/06 10:35:25;;;;;;;6.13;2.63;;;;;;;29.32;29.18;100701.82;127572;1095;101115;-83
2021/06/06 10:37:56;;;;;;;4.68;2.33;;;;;;;29.16;29.50;100699.73;127469;1096;116135;-82
2021/06/06 10:40:50;;;;;;;5.48;2.30;;;;;;;29.28;29.93;100703.16;127510;1096;101180;-82
2021/06/06 10:43:32;;;;;;;5.13;2.40;;;;;;;29.25;30.82;100708.93;124692;1095;103103;-82
2021/06/06 10:46:24;;;;;;;5.05;3.25;;;;;;;29.84;29.63;100704.73;124430;1095;115932;-82
2021/06/06 10:49:13;;;;;;;3.05;2.48;;;;;;;30.80;28.86;100697.48;124414;1096;103145;-82
2021/06/06 10:52:07;;;;;;;3.93;2.58;;;;;;;31.87;26.61;100696.87;124493;1095;114527;-82
2021/06/06 10:54:42;;;;;;;8.40;2.53;;;;;;;32.73;25.94;100688.95;124985;1093;103355;-84
2021/06/06 10:57:29;;;;;;;3.70;2.60;;;;;;;33.36;24.50;100686.22;124845;1093;114535;-83
2021/06/06 11:00:00;;;;;;;4.80;2.23;;;;;;;33.56;23.70;100699.55;124834;1093;103142;-83
2021/06/06 11:02:55;;;;;;;5.20;2.15;;;;;;;33.20;24.21;100686.31;124873;1093;114747;-80
2021/06/06 11:05:23;;;;;;;3.08;1.93;;;;;;;32.40;23.49;100689.03;124463;1093;103646;-82
2021/06/06 11:07:50;;;;;;;3.33;2.37;;;;;;;31.65;23.86;100690.15;124770;1093;114820;-84
2021/06/06 11:10:20;;;;;;;2.68;2.03;;;;;;;30.91;25.78;100684.43;124325;1093;103178;-82
2021/06/06 11:12:51;;;;;;;6.20;2.00;;;;;;;30.56;25.52;100686.36;124411;1093;103173;-81
2021/06/06 11:15:57;;;;;;;3.85;2.85;;;;;;;30.16;26.44;100681.30;127585;1093;115401;-79
2021/06/06 11:18:26;;;;;;;5.60;2.50;;;;;;;30.17;27.19;100671.17;124623;1093;103508;-78
2021/06/06 11:21:01;;;;;;;6.53;2.70;;;;;;;29.91;28.02;100679.39;124798;1093;115672;-80
2021/06/06 11:23:56;;;;;;;5.03;2.28;;;;;;;29.83;28.88;100671.91;124394;1093;103655;-81
2021/06/06 11:26:32;;;;;;;5.50;2.80;;;;;;;29.50;28.15;100677.15;124573;1093;114833;-80
2021/06/06 11:29:19;;;;;;;5.10;2.55;;;;;;;29.12;28.13;100674.48;124680;1093;103189;-80
2021/06/06 11:32:01;;;;;;;6.80;2.70;;;;;;;28.81;30.00;100680.31;125027;1092;116577;-84
2021/06/06 11:34:31;;;;;;;6.83;2.60;;;;;;;28.43;29.80;100675.84;125158;1092;103259;-92
2021/06/06 11:37:15;;;;;;;4.80;2.53;;;;;;;28.18;29.17;100681.84;125574;1093;102990;-80